createdAt,value
2023-02-25T00:00:34.535Z,70.71
2023-02-25T00:03:03.753Z,70.36
2023-02-25T00:05:33.941Z,69.65
2023-02-25T00:08:02.020Z,68.43
2023-02-25T00:10:31.692Z,68.46
2023-02-25T00:13:15.953Z,67.87
2023-02-25T00:15:47.100Z,68.00
2023-02-25T00:18:14.956Z,68.41
2023-02-25T00:20:43.662Z,69.42
2023-02-25T00:23:14.036Z,70.54
2023-02-25T00:25:43.518Z,70.18
2023-02-25T00:28:12.380Z,70.68
2023-02-25T00:30:42.723Z,70.88
2023-02-25T00:33:13.265Z,69.96
2023-02-25T00:35:43.497Z,70.76
2023-02-25T00:38:15.959Z,70.32
2023-02-25T00:40:45.432Z,70.71
2023-02-25T00:43:18.105Z,69.59
2023-02-25T00:45:46.134Z,70.33
2023-02-25T00:48:22.355Z,69.35
2023-02-25T00:50:51.816Z,69.28
2023-02-25T00:53:19.650Z,69.28
2023-02-25T00:55:47.882Z,68.65
2023-02-25T00:58:18.334Z,69.15
2023-02-25T01:00:52.074Z,68.82
2023-02-25T01:03:23.474Z,68.42
2023-02-25T01:05:57.216Z,69.03
2023-02-25T01:08:26.316Z,68.97
2023-02-25T01:10:54.808Z,69.05
2023-02-25T01:13:23.111Z,68.75
2023-02-25T01:15:53.414Z,68.62
2023-02-25T01:18:23.145Z,68.62
2023-02-25T01:20:51.194Z,68.52
2023-02-25T01:23:19.163Z,69.61
2023-02-25T01:25:47.508Z,69.25
2023-02-25T01:28:17.375Z,69.54
2023-02-25T01:30:48.071Z,69.70
2023-02-25T01:33:20.223Z,70.41
2023-02-25T01:35:49.743Z,69.80
2023-02-25T01:38:17.827Z,69.35
2023-02-25T01:40:46.118Z,70.62
2023-02-25T01:43:16.507Z,70.46
2023-02-25T01:45:49.569Z,69.61
2023-02-25T01:48:24.778Z,69.99
2023-02-25T01:51:00.386Z,70.23
2023-02-25T01:53:36.011Z,70.14
2023-02-25T01:56:05.171Z,70.00
2023-02-25T01:58:38.289Z,69.60
2023-02-25T02:01:24.462Z,69.93
2023-02-25T02:03:53.582Z,69.95
2023-02-25T02:06:29.284Z,70.10
2023-02-25T02:09:01.262Z,69.52
2023-02-25T02:11:31.098Z,69.34
2023-02-25T02:14:01.761Z,69.48
2023-02-25T02:17:09.778Z,67.93
2023-02-25T02:19:57.021Z,68.33
2023-02-25T02:22:41.026Z,68.22
2023-02-25T02:25:59.810Z,66.17
2023-02-25T02:29:00.083Z,66.87
2023-02-25T02:31:52.233Z,65.76
2023-02-25T02:34:32.544Z,62.25
2023-02-25T02:37:11.787Z,62.26
2023-02-25T02:39:53.445Z,61.50
2023-02-25T02:42:33.153Z,61.75
2023-02-25T02:45:09.456Z,61.28
2023-02-25T02:47:43.931Z,61.01
2023-02-25T02:50:18.620Z,61.23
2023-02-25T02:52:53.016Z,59.12
2023-02-25T02:55:27.819Z,58.35
2023-02-25T02:58:06.141Z,58.74
2023-02-25T03:00:39.248Z,59.17
2023-02-25T03:03:14.602Z,59.94
2023-02-25T03:05:46.139Z,60.28
2023-02-25T03:08:21.468Z,60.71
2023-02-25T03:10:51.415Z,60.48
2023-02-25T03:13:22.915Z,60.43
2023-02-25T03:15:56.824Z,61.30
2023-02-25T03:18:37.612Z,62.10
2023-02-25T03:21:14.682Z,63.56
2023-02-25T03:23:46.676Z,64.11
2023-02-25T03:26:25.152Z,64.29
2023-02-25T03:28:58.269Z,64.55
2023-02-25T03:31:29.343Z,64.49
2023-02-25T03:34:03.315Z,64.04
2023-02-25T03:36:37.609Z,64.42
2023-02-25T03:39:13.490Z,63.89
2023-02-25T03:41:46.817Z,63.31
2023-02-25T03:44:20.063Z,64.49
2023-02-25T03:46:50.640Z,64.80
2023-02-25T03:49:31.694Z,66.09
2023-02-25T03:52:04.401Z,65.97
2023-02-25T03:54:33.432Z,65.50
2023-02-25T03:57:08.775Z,65.93
2023-02-25T03:59:36.951Z,65.76
2023-02-25T04:02:07.153Z,66.39
2023-02-25T04:04:36.415Z,66.82
2023-02-25T04:07:04.496Z,66.91
2023-02-25T04:09:32.554Z,66.69
2023-02-25T04:12:01.798Z,66.68
2023-02-25T04:14:29.664Z,66.71
2023-02-25T04:16:57.508Z,65.81
2023-02-25T04:19:28.497Z,66.35
2023-02-25T04:22:02.678Z,66.14
2023-02-25T04:24:32.002Z,67.06
2023-02-25T04:27:02.745Z,67.53
2023-02-25T04:29:33.119Z,67.30
2023-02-25T04:32:08.315Z,67.07
2023-02-25T04:34:36.456Z,66.42
2023-02-25T04:37:06.210Z,67.54
2023-02-25T04:39:36.386Z,67.59
2023-02-25T04:42:05.443Z,68.53
2023-02-25T04:44:33.755Z,68.89
2023-02-25T04:47:02.133Z,69.01
2023-02-25T04:49:30.515Z,69.08
2023-02-25T04:51:59.618Z,68.98
2023-02-25T04:54:31.256Z,68.87
2023-02-25T04:57:01.544Z,69.21
2023-02-25T04:59:30.165Z,68.97
2023-02-25T05:01:58.218Z,69.12
2023-02-25T05:04:26.593Z,69.92
2023-02-25T05:06:55.683Z,69.68
2023-02-25T05:09:23.853Z,69.10
2023-02-25T05:11:55.060Z,68.74
2023-02-25T05:14:22.904Z,69.12
2023-02-25T05:17:02.157Z,68.76
2023-02-25T05:19:30.255Z,68.91
2023-02-25T05:22:01.096Z,68.77
2023-02-25T05:24:30.101Z,69.91
2023-02-25T05:27:08.361Z,69.36
2023-02-25T05:29:39.324Z,70.22
2023-02-25T05:32:10.378Z,70.46
2023-02-25T05:34:38.633Z,69.88
2023-02-25T05:37:07.476Z,69.69
2023-02-25T05:39:35.606Z,70.05
2023-02-25T05:42:06.164Z,69.56
2023-02-25T05:44:37.622Z,69.88
2023-02-25T05:47:07.506Z,69.51
2023-02-25T05:49:35.807Z,70.11
2023-02-25T05:52:05.208Z,69.59
2023-02-25T05:54:33.261Z,68.92
2023-02-25T05:57:03.672Z,68.66
2023-02-25T05:59:37.889Z,69.48
2023-02-25T06:02:06.357Z,69.70
2023-02-25T06:04:35.618Z,69.15
2023-02-25T06:07:04.490Z,69.07
2023-02-25T06:09:34.799Z,69.63
2023-02-25T06:12:03.704Z,69.91
2023-02-25T06:14:33.259Z,69.64
2023-02-25T06:17:02.299Z,70.31
2023-02-25T06:19:30.380Z,69.67
2023-02-25T06:21:58.397Z,69.99
2023-02-25T06:24:27.425Z,69.02
2023-02-25T06:26:55.127Z,69.22
2023-02-25T06:29:23.076Z,69.60
2023-02-25T06:31:54.838Z,70.83
2023-02-25T06:34:23.841Z,69.31
2023-02-25T06:36:56.203Z,68.51
2023-02-25T06:39:27.223Z,69.60
2023-02-25T06:41:55.434Z,69.94
2023-02-25T06:44:24.838Z,69.86
2023-02-25T06:47:05.019Z,69.53
2023-02-25T06:49:32.957Z,69.53
2023-02-25T06:52:01.273Z,69.68
2023-02-25T06:54:29.089Z,69.42
2023-02-25T06:56:59.591Z,69.42
2023-02-25T06:59:28.478Z,69.81
2023-02-25T07:01:57.572Z,69.42
2023-02-25T07:04:25.883Z,69.91
2023-02-25T07:06:57.199Z,69.35
2023-02-25T07:12:09.313Z,69.23
2023-02-25T07:14:37.452Z,69.63
2023-02-25T07:17:07.748Z,69.99
2023-02-25T07:19:40.976Z,69.52
2023-02-25T07:22:09.979Z,69.19
2023-02-25T07:24:41.283Z,68.93
2023-02-25T07:27:11.243Z,70.06
2023-02-25T07:29:40.059Z,69.17
2023-02-25T07:32:17.304Z,69.83
2023-02-25T07:34:52.665Z,70.47
2023-02-25T07:37:22.645Z,69.39
2023-02-25T07:39:52.544Z,69.93
2023-02-25T07:42:20.516Z,69.75
2023-02-25T07:44:53.133Z,69.93
2023-02-25T07:47:23.534Z,69.78
2023-02-25T07:49:53.974Z,69.63
2023-02-25T07:52:22.036Z,69.09
2023-02-25T07:54:51.226Z,68.90
2023-02-25T07:57:19.399Z,70.31
2023-02-25T08:00:01.207Z,69.98
2023-02-25T08:02:33.288Z,69.03
2023-02-25T08:05:04.892Z,69.35
2023-02-25T08:07:35.622Z,69.68
2023-02-25T08:10:05.337Z,69.32
2023-02-25T08:12:37.184Z,68.52
2023-02-25T08:15:07.532Z,68.99
2023-02-25T08:17:37.243Z,69.67
2023-02-25T08:20:07.554Z,69.93
2023-02-25T08:22:35.951Z,69.42
2023-02-25T08:25:04.189Z,70.12
2023-02-25T08:27:35.220Z,69.28
2023-02-25T08:30:12.953Z,68.61
2023-02-25T08:32:49.325Z,69.27
2023-02-25T08:35:20.330Z,69.86
2023-02-25T08:37:50.400Z,68.97
2023-02-25T08:40:20.003Z,68.24
2023-02-25T08:42:49.550Z,68.53
2023-02-25T08:45:22.063Z,68.11
2023-02-25T08:47:54.745Z,68.92
2023-02-25T08:50:25.232Z,68.17
2023-02-25T08:52:53.848Z,68.51
2023-02-25T08:55:25.054Z,68.62
2023-02-25T08:57:54.526Z,68.87
2023-02-25T09:00:24.564Z,67.94
2023-02-25T09:02:55.862Z,68.26
2023-02-25T09:05:25.784Z,67.01
2023-02-25T09:07:55.316Z,66.34
2023-02-25T09:10:25.156Z,65.83
2023-02-25T09:13:00.333Z,65.33
2023-02-25T09:15:29.011Z,65.67
2023-02-25T09:18:00.547Z,65.96
2023-02-25T09:20:28.763Z,64.26
2023-02-25T09:22:59.957Z,64.76
2023-02-25T09:25:30.092Z,63.98
2023-02-25T09:28:02.732Z,63.64
2023-02-25T09:30:30.597Z,64.00
2023-02-25T09:33:00.347Z,63.20
2023-02-25T09:35:29.778Z,62.58
2023-02-25T09:37:57.508Z,61.95
2023-02-25T09:40:26.710Z,62.38
2023-02-25T09:43:11.671Z,62.08
2023-02-25T09:45:39.793Z,61.01
2023-02-25T09:48:18.552Z,60.52
2023-02-25T09:50:54.774Z,59.77
2023-02-25T09:53:27.966Z,58.74
2023-02-25T09:55:56.868Z,58.59
2023-02-25T09:58:32.915Z,58.66
2023-02-25T10:01:07.544Z,57.95
2023-02-25T10:03:53.272Z,57.74
2023-02-25T10:06:32.616Z,58.07
2023-02-25T10:09:10.608Z,58.23
2023-02-25T10:11:47.983Z,57.60
2023-02-25T10:14:31.264Z,57.64
2023-02-25T10:17:09.037Z,57.30
2023-02-25T10:19:55.427Z,56.91
2023-02-25T10:22:42.104Z,56.84
2023-02-25T10:25:18.278Z,57.45
2023-02-25T10:27:51.996Z,57.30
2023-02-25T10:30:26.855Z,56.83
2023-02-25T10:32:56.595Z,58.42
2023-02-25T10:35:34.740Z,57.44
2023-02-25T10:38:02.673Z,57.79
2023-02-25T10:40:31.264Z,57.20
2023-02-25T10:43:04.393Z,57.34
2023-02-25T10:45:35.781Z,56.94
2023-02-25T10:48:11.224Z,56.23
2023-02-25T10:50:46.313Z,55.05
2023-02-25T10:53:17.425Z,57.82
2023-02-25T10:55:59.287Z,54.46
2023-02-25T10:58:47.796Z,55.41
2023-02-25T11:01:18.517Z,55.69
2023-02-25T11:03:59.700Z,55.15
2023-02-25T11:06:31.650Z,55.67
2023-02-25T11:09:07.177Z,55.91
2023-02-25T11:11:39.531Z,55.74
2023-02-25T11:14:25.227Z,55.87
2023-02-25T11:17:03.814Z,56.12
2023-02-25T11:19:36.683Z,58.22
2023-02-25T11:22:21.297Z,57.93
2023-02-25T11:25:01.159Z,56.47
2023-02-25T11:27:38.981Z,57.73
2023-02-25T11:30:20.765Z,58.95
2023-02-25T11:32:54.665Z,63.18
2023-02-25T11:35:30.220Z,64.24
2023-02-25T11:38:21.025Z,66.80
2023-02-25T11:40:49.292Z,71.97
2023-02-25T11:43:20.817Z,79.52
2023-02-25T11:45:55.319Z,83.27
2023-02-25T11:48:28.913Z,84.30
2023-02-25T11:51:09.975Z,84.88
2023-02-25T11:53:53.277Z,85.14
2023-02-25T11:56:27.559Z,84.67
2023-02-25T11:59:10.478Z,81.25
2023-02-25T12:02:00.530Z,81.58
2023-02-25T12:04:52.064Z,80.83
2023-02-25T12:07:55.400Z,80.51
2023-02-25T12:10:53.700Z,75.43
2023-02-25T12:13:59.232Z,78.31
2023-02-25T12:17:18.385Z,73.77
2023-02-25T12:20:17.956Z,72.83
2023-02-25T12:23:12.116Z,69.58
2023-02-25T12:25:52.210Z,71.94
2023-02-25T12:28:45.179Z,68.70
2023-02-25T12:31:39.401Z,66.99
2023-02-25T12:34:40.768Z,67.73
2023-02-25T12:37:42.114Z,67.05
2023-02-25T12:40:31.561Z,67.57
2023-02-25T12:43:22.335Z,73.81
2023-02-25T12:46:06.114Z,68.98
2023-02-25T12:49:22.279Z,68.65
2023-02-25T12:52:08.526Z,68.43
2023-02-25T12:55:08.479Z,65.39
2023-02-25T12:57:52.325Z,65.64
2023-02-25T13:00:49.500Z,63.60
2023-02-25T13:03:35.848Z,65.57
2023-02-25T13:06:47.549Z,63.42
2023-02-25T13:09:41.130Z,60.30
2023-02-25T13:12:37.877Z,59.07
2023-02-25T13:15:14.197Z,58.96
2023-02-25T13:18:24.073Z,54.88
2023-02-25T13:21:09.393Z,55.88
2023-02-25T13:23:58.620Z,55.61
2023-02-25T13:26:40.433Z,55.37
2023-02-25T13:29:24.268Z,54.82
2023-02-25T13:32:16.212Z,56.29
2023-02-25T13:34:53.360Z,55.35
2023-02-25T13:37:37.880Z,55.71
2023-02-25T13:40:46.352Z,55.73
2023-02-25T13:43:34.623Z,56.48
2023-02-25T13:46:31.557Z,57.20
2023-02-25T13:49:22.108Z,61.64
2023-02-25T13:52:23.832Z,65.79
2023-02-25T13:55:22.555Z,68.20
2023-02-25T13:58:20.712Z,68.18
2023-02-25T14:01:07.892Z,68.95
2023-02-25T14:04:25.423Z,69.14
2023-02-25T14:07:36.552Z,72.51
2023-02-25T14:10:26.775Z,70.34
2023-02-25T14:13:16.107Z,73.72
2023-02-25T14:16:00.215Z,71.75
2023-02-25T14:19:06.349Z,77.22
2023-02-25T14:22:02.698Z,83.22
2023-02-25T14:24:41.785Z,85.67
2023-02-25T14:27:26.215Z,84.71
2023-02-25T14:30:14.273Z,86.37
2023-02-25T14:32:54.075Z,86.70
2023-02-25T14:35:48.290Z,85.76
2023-02-25T14:38:23.171Z,86.83
2023-02-25T14:41:03.772Z,83.68
2023-02-25T14:43:36.241Z,84.17
2023-02-25T14:46:29.844Z,84.33
2023-02-25T14:49:02.637Z,83.86
2023-02-25T14:51:51.941Z,85.19
2023-02-25T14:55:06.169Z,82.49
2023-02-25T14:57:52.444Z,80.69
2023-02-25T15:00:50.312Z,84.32
2023-02-25T15:03:45.198Z,83.27
2023-02-25T15:06:42.269Z,76.43
2023-02-25T15:09:40.185Z,74.23
2023-02-25T15:12:30.696Z,72.78
2023-02-25T15:15:41.026Z,76.99
2023-02-25T15:18:28.039Z,78.22
2023-02-25T15:20:59.379Z,74.19
2023-02-25T15:23:52.424Z,77.52
2023-02-25T15:26:34.305Z,69.66
2023-02-25T15:29:02.980Z,68.41
2023-02-25T15:31:41.261Z,65.56
2023-02-25T15:34:37.335Z,59.37
2023-02-25T15:37:29.161Z,60.71
2023-02-25T15:40:02.124Z,53.59
2023-02-25T15:42:57.604Z,50.95
2023-02-25T15:45:46.894Z,53.57
2023-02-25T15:48:35.266Z,49.76
2023-02-25T15:51:10.192Z,51.59
2023-02-25T15:53:45.068Z,51.88
2023-02-25T15:56:51.131Z,57.10
2023-02-25T15:59:45.332Z,55.96
2023-02-25T16:02:51.884Z,57.65
2023-02-25T16:05:28.726Z,55.64
2023-02-25T16:08:08.204Z,54.26
2023-02-25T16:10:46.373Z,54.90
2023-02-25T16:13:17.364Z,55.26
2023-02-25T16:15:52.153Z,53.05
2023-02-25T16:18:33.017Z,50.87
2023-02-25T16:21:07.384Z,52.10
2023-02-25T16:23:41.681Z,51.60
2023-02-25T16:26:27.152Z,55.60
2023-02-25T16:32:03.135Z,52.37
2023-02-25T16:34:40.695Z,52.37
2023-02-25T16:37:17.907Z,52.57
2023-02-25T16:39:58.522Z,52.25
2023-02-25T16:42:54.341Z,52.27
2023-02-25T16:45:35.409Z,50.53
2023-02-25T16:51:39.622Z,52.58
2023-02-25T16:57:37.398Z,51.21
2023-02-25T17:16:52.054Z,53.36
2023-02-25T17:27:46.472Z,53.83
2023-02-25T17:30:37.769Z,52.82
2023-02-25T17:37:03.986Z,51.93
2023-02-25T17:56:28.670Z,50.21
2023-02-25T18:06:58.683Z,49.56
2023-02-25T18:09:44.554Z,49.56
2023-02-25T18:12:58.554Z,48.74
2023-02-25T18:15:32.254Z,49.48
2023-02-25T18:18:04.274Z,50.40
2023-02-25T18:20:37.953Z,51.02
2023-02-25T18:26:30.160Z,51.01
2023-02-25T18:29:30.300Z,52.27
2023-02-25T18:32:03.173Z,52.81
2023-02-25T18:34:32.878Z,53.58
2023-02-25T18:37:01.202Z,53.15
2023-02-25T18:39:31.658Z,54.04
2023-02-25T18:42:08.061Z,54.50
2023-02-25T18:44:41.752Z,54.30
2023-02-25T18:47:12.610Z,56.10
2023-02-25T18:49:49.673Z,55.94
2023-02-25T18:52:28.695Z,55.74
2023-02-25T18:54:58.644Z,56.45
2023-02-25T18:58:58.249Z,55.61
2023-02-25T19:05:08.160Z,57.70
2023-02-25T19:07:40.605Z,57.82
2023-02-25T19:10:21.806Z,57.87
2023-02-25T19:12:52.217Z,57.91
2023-02-25T19:15:23.736Z,57.84
2023-02-25T19:17:55.128Z,58.53
2023-02-25T19:20:28.671Z,58.41
2023-02-25T19:22:58.927Z,58.07
2023-02-25T19:25:35.277Z,57.74
2023-02-25T19:28:07.621Z,58.26
2023-02-25T19:30:42.916Z,58.07
2023-02-25T19:33:13.104Z,57.67
2023-02-25T19:35:44.484Z,58.12
2023-02-25T19:38:16.014Z,58.30
2023-02-25T19:41:01.476Z,58.51
2023-02-25T19:43:37.892Z,58.85
2023-02-25T19:46:11.281Z,58.63
2023-02-25T19:48:40.654Z,59.39
2023-02-25T19:51:21.256Z,59.14
2023-02-25T20:46:45.762Z,64.35
2023-02-25T21:22:06.460Z,64.80
2023-02-25T21:25:31.859Z,65.40
2023-02-25T22:10:46.992Z,64.01
2023-02-25T22:13:15.191Z,65.08
2023-02-25T22:15:49.164Z,65.17
2023-02-25T22:18:23.428Z,64.47
2023-02-25T22:20:51.674Z,65.25
2023-02-25T22:23:19.999Z,65.84
2023-02-25T22:25:58.237Z,65.30
2023-02-25T22:28:32.013Z,65.18
2023-02-25T22:31:02.909Z,65.83
2023-02-25T22:33:39.481Z,66.19
2023-02-25T22:36:40.581Z,65.66
2023-02-25T22:39:38.295Z,64.82
2023-02-25T22:53:12.142Z,64.92
2023-02-25T22:55:41.978Z,64.35
2023-02-25T23:01:41.792Z,63.99
2023-02-25T23:08:12.146Z,66.04
